Time;durP1;ratioP1;P1;durP2;ratioP2;P2;SDS_P1;SDS_P2;PMS_P1;PMS_P2;Temp;Humidity;BMP_temperature;BMP_pressure;BME280_temperature;BME280_humidity;BME280_pressure;Samples;Min_cycle;Max_cycle;Signal;HPM_P1;HPM_P2
2021/08/28 00:00:50;;;;;;;;;;;;;;;21.71;63.63;102308.56;7284976;19;152203;-50
2021/08/28 00:03:18;;;;;;;;;;;;;;;21.71;63.88;102303.75;7282321;19;153825;-49
2021/08/28 00:05:46;;;;;;;;;;;;;;;21.71;63.93;102309.38;7282786;19;154504;-50
2021/08/28 00:08:12;;;;;;;;;;;;;;;21.71;63.69;102297.28;7282519;19;151590;-50
2021/08/28 00:10:40;;;;;;;;;;;;;;;21.70;63.83;102302.06;7283879;19;152055;-49
2021/08/28 00:13:07;;;;;;;;;;;;;;;21.71;64.19;102308.56;7283205;19;154290;-49
2021/08/28 00:15:33;;;;;;;;;;;;;;;21.71;64.18;102305.75;7289386;19;152131;-50
2021/08/28 00:18:00;;;;;;;;;;;;;;;21.71;64.10;102305.75;7283654;19;155114;-49
2021/08/28 00:20:27;;;;;;;;;;;;;;;21.71;63.86;102308.56;7284113;19;151624;-50
2021/08/28 00:22:54;;;;;;;;;;;;;;;21.71;64.25;102309.38;7282671;19;152263;-49
2021/08/28 00:25:21;;;;;;;;;;;;;;;21.70;63.94;102312.47;7283020;19;156489;-50
2021/08/28 00:27:47;;;;;;;;;;;;;;;21.70;64.02;102310.53;7284214;19;151701;-50
2021/08/28 00:30:15;;;;;;;;;;;;;;;21.72;64.21;102315.84;7278056;19;153047;-50
2021/08/28 00:32:41;;;;;;;;;;;;;;;21.73;63.93;102321.19;7282824;19;153942;-49
2021/08/28 00:35:08;;;;;;;;;;;;;;;21.73;64.24;102320.34;7290904;19;151925;-50
2021/08/28 00:37:35;;;;;;;;;;;;;;;21.72;64.18;102313.88;7280698;19;153978;-49
2021/08/28 00:40:02;;;;;;;;;;;;;;;21.76;64.42;102318.94;7282502;19;151783;-49
2021/08/28 00:42:29;;;;;;;;;;;;;;;21.72;63.99;102319.50;7284090;19;153806;-49
2021/08/28 00:44:56;;;;;;;;;;;;;;;21.73;64.55;102326.81;7280363;19;152917;-50
2021/08/28 00:47:25;;;;;;;;;;;;;;;21.72;64.78;102318.66;7281427;19;151629;-50
2021/08/28 00:49:51;;;;;;;;;;;;;;;21.73;64.73;102318.38;7280692;19;152583;-49
2021/08/28 00:52:19;;;;;;;;;;;;;;;21.72;64.26;102316.69;7281710;19;153908;-49
2021/08/28 00:54:46;;;;;;;;;;;;;;;21.75;64.36;102318.09;7282923;19;151613;-50
2021/08/28 00:57:13;;;;;;;;;;;;;;;21.74;64.60;102319.22;7289659;19;151756;-50
2021/08/28 00:59:40;;;;;;;;;;;;;;;21.72;64.26;102315.84;7283198;19;151958;-50
2021/08/28 01:02:08;;;;;;;;;;;;;;;21.74;64.22;102322.03;7282660;19;153628;-50
2021/08/28 01:04:45;;;;;;;;;;;;;;;21.74;64.65;102314.44;7280483;19;153712;-49
2021/08/28 01:07:16;;;;;;;;;;;;;;;21.73;64.26;102318.38;7284546;19;152263;-49
2021/08/28 01:09:45;;;;;;;;;;;;;;;21.73;64.58;102301.50;7278679;19;153642;-50
2021/08/28 01:12:14;;;;;;;;;;;;;;;21.74;64.44;102303.19;7281637;19;154131;-50
2021/08/28 01:14:44;;;;;;;;;;;;;;;21.75;64.64;102309.66;7279308;19;151840;-50
2021/08/28 01:17:13;;;;;;;;;;;;;;;21.74;64.91;102294.75;7281855;19;152744;-50
2021/08/28 01:19:39;;;;;;;;;;;;;;;21.76;64.55;102302.06;7286680;19;154747;-50
2021/08/28 01:22:09;;;;;;;;;;;;;;;21.75;64.75;102306.84;7281520;19;153305;-51
2021/08/28 01:24:36;;;;;;;;;;;;;;;21.75;64.51;102306.84;7279852;19;152156;-49
2021/08/28 01:27:22;;;;;;;;;;;;;;;21.77;64.92;102304.59;7282090;19;151749;-49
2021/08/28 01:29:49;;;;;;;;;;;;;;;21.76;64.70;102311.31;7278896;19;152466;-49
2021/08/28 01:32:17;;;;;;;;;;;;;;;21.77;64.35;102298.09;7279542;19;153563;-50
2021/08/28 01:34:45;;;;;;;;;;;;;;;21.77;64.33;102309.34;7281644;19;151822;-50
2021/08/28 01:37:15;;;;;;;;;;;;;;;21.77;64.68;102307.41;7282708;19;152906;-49
2021/08/28 01:39:43;;;;;;;;;;;;;;;21.76;64.67;102307.69;7279879;19;153850;-50
2021/08/28 01:42:12;;;;;;;;;;;;;;;21.77;64.60;102304.59;7290904;19;151647;-50
2021/08/28 01:44:38;;;;;;;;;;;;;;;21.78;64.54;102305.44;7278605;19;154107;-50
2021/08/28 01:47:07;;;;;;;;;;;;;;;21.77;64.68;102310.22;7283359;19;152434;-49
2021/08/28 01:49:34;;;;;;;;;;;;;;;21.79;64.58;102309.94;7278956;19;152052;-50
2021/08/28 01:52:01;;;;;;;;;;;;;;;21.78;64.54;102305.44;7279420;19;152645;-49
2021/08/28 01:54:28;;;;;;;;;;;;;;;21.78;64.44;102305.44;7280473;19;151507;-50
2021/08/28 01:56:55;;;;;;;;;;;;;;;21.80;64.82;102300.38;7281669;19;153752;-49
2021/08/28 01:59:22;;;;;;;;;;;;;;;21.78;64.40;102302.63;7279168;19;153325;-49
2021/08/28 02:01:48;;;;;;;;;;;;;;;21.78;64.74;102313.88;7281103;19;151929;-50
2021/08/28 02:04:15;;;;;;;;;;;;;;;21.78;64.86;102308.25;7285763;19;153915;-50
2021/08/28 02:06:51;;;;;;;;;;;;;;;21.78;64.91;102306.28;7281579;19;152113;-50
2021/08/28 02:09:25;;;;;;;;;;;;;;;21.78;64.83;102311.91;7278970;19;153343;-50
2021/08/28 02:12:00;;;;;;;;;;;;;;;21.79;64.92;102310.78;7278164;19;154612;-49
2021/08/28 02:14:35;;;;;;;;;;;;;;;21.78;64.77;102311.06;7279879;19;151806;-49
2021/08/28 02:17:06;;;;;;;;;;;;;;;21.78;64.86;102313.88;7283328;19;152796;-50
2021/08/28 02:19:34;;;;;;;;;;;;;;;21.78;64.55;102316.69;7286670;19;153219;-49
2021/08/28 02:22:06;;;;;;;;;;;;;;;21.78;64.72;102317.53;7283482;19;152995;-50
2021/08/28 02:24:35;;;;;;;;;;;;;;;21.79;64.97;102307.13;7287168;19;153961;-49
2021/08/28 02:27:05;;;;;;;;;;;;;;;21.78;64.96;102306.28;7292938;19;153282;-50
2021/08/28 02:29:34;;;;;;;;;;;;;;;21.78;65.17;102314.72;7286097;19;153988;-50
2021/08/28 02:32:01;;;;;;;;;;;;;;;21.79;64.70;102313.59;7283527;19;153370;-49
2021/08/28 02:34:29;;;;;;;;;;;;;;;21.79;64.97;102309.94;7284422;19;151811;-49
2021/08/28 02:36:57;;;;;;;;;;;;;;;21.80;65.18;102306.84;7287756;19;153387;-49
2021/08/28 02:39:25;;;;;;;;;;;;;;;21.79;64.87;102315.56;7283671;19;153244;-50
2021/08/28 02:41:52;;;;;;;;;;;;;;;21.79;65.04;102309.94;7283307;19;152233;-49
2021/08/28 02:44:19;;;;;;;;;;;;;;;21.79;64.93;102313.59;7287310;19;152896;-49
2021/08/28 02:46:47;;;;;;;;;;;;;;;21.79;65.07;102301.50;7292690;19;153846;-50
2021/08/28 02:49:17;;;;;;;;;;;;;;;21.77;64.87;102298.09;7282009;19;153288;-50
2021/08/28 02:51:44;;;;;;;;;;;;;;;21.77;65.28;102303.72;7282982;19;153836;-49
2021/08/28 02:54:12;;;;;;;;;;;;;;;21.77;64.88;102304.59;7286481;19;152422;-50
2021/08/28 02:56:40;;;;;;;;;;;;;;;21.76;64.82;102299.25;7286810;19;153474;-49
2021/08/28 02:59:07;;;;;;;;;;;;;;;21.77;64.88;102303.72;7284037;19;153964;-49
2021/08/28 03:01:34;;;;;;;;;;;;;;;21.76;65.24;102302.06;7286331;19;151969;-50
2021/08/28 03:04:01;;;;;;;;;;;;;;;21.77;65.22;102300.91;7286425;19;153557;-50
2021/08/28 03:06:29;;;;;;;;;;;;;;;21.74;65.07;102291.94;7283934;19;154004;-50
2021/08/28 03:08:56;;;;;;;;;;;;;;;21.74;65.21;102300.38;7293548;19;152089;-50
2021/08/28 03:11:23;;;;;;;;;;;;;;;21.74;65.03;102305.16;7282792;19;153919;-50
2021/08/28 03:13:50;;;;;;;;;;;;;;;21.74;65.31;102300.38;7286354;19;151977;-50
2021/08/28 03:16:24;;;;;;;;;;;;;;;21.73;65.38;102298.69;7284305;19;153285;-49
2021/08/28 03:18:53;;;;;;;;;;;;;;;21.76;65.07;102302.06;7283821;19;152723;-49
2021/08/28 03:21:21;;;;;;;;;;;;;;;21.74;64.88;102299.53;7283408;19;151689;-50
2021/08/28 03:23:48;;;;;;;;;;;;;;;21.74;65.31;102300.38;7285896;19;152084;-49
2021/08/28 03:26:17;;;;;;;;;;;;;;;21.71;65.16;102298.13;7284635;19;153209;-50
2021/08/28 03:28:44;;;;;;;;;;;;;;;21.72;65.06;102296.16;7283587;19;151690;-50
2021/08/28 03:31:11;;;;;;;;;;;;;;;21.71;65.37;102300.13;7290168;19;152509;-50
2021/08/28 03:33:38;;;;;;;;;;;;;;;21.71;65.29;102295.31;7283461;19;153193;-49
2021/08/28 03:36:05;;;;;;;;;;;;;;;21.70;65.25;102290.81;7285225;19;153953;-49
2021/08/28 03:38:36;;;;;;;;;;;;;;;21.71;65.34;102292.47;7282250;19;154144;-50
2021/08/28 03:41:02;;;;;;;;;;;;;;;21.68;65.35;102298.69;7285406;19;151971;-50
2021/08/28 03:43:29;;;;;;;;;;;;;;;21.69;65.28;102294.75;7282764;19;153414;-50
2021/08/28 03:45:56;;;;;;;;;;;;;;;21.68;65.05;102295.88;7280577;19;153389;-49
2021/08/28 03:48:23;;;;;;;;;;;;;;;21.66;65.14;102300.97;7283944;19;151980;-50
2021/08/28 03:50:50;;;;;;;;;;;;;;;21.67;65.60;102301.78;7282020;19;152580;-50
2021/08/28 03:53:17;;;;;;;;;;;;;;;21.67;65.65;102298.97;7288177;19;152636;-50
2021/08/28 03:55:43;;;;;;;;;;;;;;;21.66;65.68;102297.31;7284032;19;152529;-50
2021/08/28 03:58:10;;;;;;;;;;;;;;;21.65;65.69;102289.97;7283393;19;153245;-50
2021/08/28 04:00:37;;;;;;;;;;;;;;;21.63;65.67;102290.25;7285052;19;151863;-50
2021/08/28 04:03:04;;;;;;;;;;;;;;;21.64;65.83;102289.13;7285742;19;152673;-50
2021/08/28 04:05:31;;;;;;;;;;;;;;;21.64;65.65;102291.94;7281946;19;154330;-49
2021/08/28 04:07:58;;;;;;;;;;;;;;;21.63;65.61;102290.25;7282908;19;151739;-49
2021/08/28 04:10:25;;;;;;;;;;;;;;;21.65;65.86;102284.34;7280487;19;153396;-49
2021/08/28 04:12:52;;;;;;;;;;;;;;;21.63;65.98;102293.06;7282035;19;152267;-49
2021/08/28 04:15:18;;;;;;;;;;;;;;;21.63;66.07;102290.25;7289662;19;152019;-49
2021/08/28 04:17:45;;;;;;;;;;;;;;;21.63;66.19;102293.06;7282549;19;153344;-50
2021/08/28 04:20:12;;;;;;;;;;;;;;;21.62;66.31;102305.44;7281970;19;151751;-50
2021/08/28 04:22:38;;;;;;;;;;;;;;;21.63;66.14;102301.50;7283883;19;151907;-50
2021/08/28 04:25:06;;;;;;;;;;;;;;;21.63;66.40;102298.69;7283166;19;154078;-49
2021/08/28 04:27:32;;;;;;;;;;;;;;;21.64;66.33;102311.63;7283612;19;151589;-50
2021/08/28 04:29:59;;;;;;;;;;;;;;;21.61;66.73;102300.97;7282793;19;153298;-49
2021/08/28 04:32:26;;;;;;;;;;;;;;;21.63;66.47;102303.47;7281604;19;154242;-49
2021/08/28 04:34:52;;;;;;;;;;;;;;;21.62;66.71;102296.19;7283933;19;151602;-49
2021/08/28 04:37:19;;;;;;;;;;;;;;;21.62;66.73;102301.81;7289563;19;152776;-50
2021/08/28 04:39:46;;;;;;;;;;;;;;;21.63;66.76;102298.69;7283823;19;152046;-50
2021/08/28 04:42:13;;;;;;;;;;;;;;;21.63;67.02;102295.88;7282613;19;152488;-49
2021/08/28 04:44:39;;;;;;;;;;;;;;;21.65;66.90;102295.59;7282156;19;152675;-50
2021/08/28 04:47:06;;;;;;;;;;;;;;;21.64;66.94;102299.53;7280121;19;152512;-50
2021/08/28 04:49:33;;;;;;;;;;;;;;;21.62;66.69;102302.63;7281860;19;152053;-50
2021/08/28 04:52:00;;;;;;;;;;;;;;;21.64;67.11;102291.09;7280804;19;153936;-50
2021/08/28 04:54:27;;;;;;;;;;;;;;;21.64;66.75;102299.53;7284465;19;151710;-50
2021/08/28 04:56:53;;;;;;;;;;;;;;;21.63;67.08;102293.06;7289722;19;151630;-49
2021/08/28 04:59:20;;;;;;;;;;;;;;;21.64;66.76;102300.38;7282535;19;151735;-49
2021/08/28 05:01:47;;;;;;;;;;;;;;;21.62;67.23;102302.63;7283656;19;152508;-50
2021/08/28 05:04:14;;;;;;;;;;;;;;;21.65;67.12;102295.59;7281562;19;153670;-49
2021/08/28 05:06:41;;;;;;;;;;;;;;;21.64;67.06;102296.72;7282156;19;151690;-50
2021/08/28 05:09:08;;;;;;;;;;;;;;;21.63;67.00;102298.69;7283688;19;152690;-50
2021/08/28 05:11:34;;;;;;;;;;;;;;;21.63;67.19;102309.94;7278389;19;152662;-49
2021/08/28 05:14:01;;;;;;;;;;;;;;;21.63;67.27;102315.56;7279744;19;151872;-50
2021/08/28 05:16:28;;;;;;;;;;;;;;;21.63;67.01;102318.38;7282521;19;152563;-50
2021/08/28 05:18:55;;;;;;;;;;;;;;;21.65;66.76;102312.47;7288148;19;153537;-50
2021/08/28 05:21:22;;;;;;;;;;;;;;;21.63;67.09;102315.56;7283774;19;153640;-50
2021/08/28 05:23:49;;;;;;;;;;;;;;;21.61;67.35;102315.03;7279568;19;153710;-49
2021/08/28 05:26:16;;;;;;;;;;;;;;;21.61;67.16;102314.19;7284274;19;151525;-50
2021/08/28 05:28:43;;;;;;;;;;;;;;;21.60;67.23;102330.22;7282402;19;152517;-50
2021/08/28 05:31:10;;;;;;;;;;;;;;;21.60;67.25;102330.22;7280067;19;153170;-49
2021/08/28 05:33:36;;;;;;;;;;;;;;;21.61;66.81;102329.09;7281702;19;151903;-50
2021/08/28 05:36:03;;;;;;;;;;;;;;;21.60;67.03;102330.22;7280275;19;152565;-49
2021/08/28 05:38:30;;;;;;;;;;;;;;;21.59;66.97;102328.50;7279703;19;152892;-49
2021/08/28 05:40:57;;;;;;;;;;;;;;;21.58;67.04;102338.06;7289978;19;151541;-50
2021/08/28 05:43:24;;;;;;;;;;;;;;;21.57;67.27;102342.03;7280117;19;153736;-49
2021/08/28 05:45:52;;;;;;;;;;;;;;;21.58;67.06;102345.66;7280051;19;152045;-49
2021/08/28 05:48:19;;;;;;;;;;;;;;;21.58;67.31;102345.66;7280838;19;152692;-50
2021/08/28 05:50:45;;;;;;;;;;;;;;;21.59;67.12;102344.53;7281831;19;154171;-50
2021/08/28 05:53:12;;;;;;;;;;;;;;;21.60;67.24;102343.44;7285987;19;152306;-50
2021/08/28 05:55:39;;;;;;;;;;;;;;;21.58;67.12;102342.84;7288024;19;152968;-50
2021/08/28 05:58:06;;;;;;;;;;;;;;;21.59;67.17;102350.16;7288748;19;153735;-49
2021/08/28 06:00:32;;;;;;;;;;;;;;;21.57;67.37;102352.44;7286425;19;151616;-49
2021/08/28 06:02:59;;;;;;;;;;;;;;;21.56;67.27;102354.41;7294922;19;152095;-49
2021/08/28 06:05:26;;;;;;;;;;;;;;;21.56;67.41;102354.41;7285469;19;154158;-50
2021/08/28 06:07:53;;;;;;;;;;;;;;;21.56;67.39;102350.75;7287797;19;153164;-50
2021/08/28 06:10:20;;;;;;;;;;;;;;;21.55;67.34;102355.53;7285801;19;153298;-50
2021/08/28 06:12:46;;;;;;;;;;;;;;;21.56;67.31;102357.22;7288069;19;151714;-50
2021/08/28 06:15:13;;;;;;;;;;;;;;;21.55;67.47;102347.09;7286065;19;153883;-50
2021/08/28 06:17:40;;;;;;;;;;;;;;;21.55;67.18;102351.84;7286285;19;154478;-49
2021/08/28 06:20:07;;;;;;;;;;;;;;;21.56;67.46;102353.56;7283262;19;151946;-50
2021/08/28 06:22:34;;;;;;;;;;;;;;;21.56;67.41;102350.75;7287458;19;152601;-50
2021/08/28 06:25:01;;;;;;;;;;;;;;;21.54;67.26;102353.81;7293488;19;152271;-50
2021/08/28 06:27:27;;;;;;;;;;;;;;;21.56;67.72;102357.22;7284269;19;152554;-49
2021/08/28 06:29:54;;;;;;;;;;;;;;;21.57;67.64;102356.09;7286909;19;154399;-50
2021/08/28 06:32:21;;;;;;;;;;;;;;;21.58;67.50;102360.56;7281856;19;151863;-50
2021/08/28 06:34:48;;;;;;;;;;;;;;;21.56;67.43;102357.22;7285509;19;153541;-50
2021/08/28 06:37:14;;;;;;;;;;;;;;;21.58;67.39;102359.72;7285834;19;154210;-49
2021/08/28 06:39:41;;;;;;;;;;;;;;;21.58;67.56;102362.53;7287125;19;152005;-50
2021/08/28 06:42:08;;;;;;;;;;;;;;;21.57;67.34;102366.50;7285696;19;153528;-49
2021/08/28 06:44:35;;;;;;;;;;;;;;;21.57;67.95;102360.88;7284762;19;153288;-50
2021/08/28 06:47:01;;;;;;;;;;;;;;;21.55;67.71;102369.59;7294164;19;152117;-50
2021/08/28 06:49:28;;;;;;;;;;;;;;;21.55;67.73;102369.59;7285874;19;153493;-50
2021/08/28 06:51:55;;;;;;;;;;;;;;;21.55;67.81;102366.78;7281700;19;151652;-50
2021/08/28 06:54:22;;;;;;;;;;;;;;;21.56;67.46;102376.91;7286046;19;153644;-50
2021/08/28 06:56:49;;;;;;;;;;;;;;;21.57;67.83;102366.50;7285362;19;153294;-50
2021/08/28 06:59:15;;;;;;;;;;;;;;;21.56;67.67;102370.44;7286336;19;152320;-50
2021/08/28 07:01:42;;;;;;;;;;;;;;;21.59;67.74;102373.53;7284964;19;152668;-49
2021/08/28 07:04:15;;;;;;;;;;;;;;;21.58;67.67;102376.59;7283406;19;153266;-49
2021/08/28 07:06:49;;;;;;;;;;;;;;;21.55;67.96;102369.59;7292336;19;151644;-50
2021/08/28 07:09:15;;;;;;;;;;;;;;;21.56;67.96;102373.25;7285318;19;154908;-49
2021/08/28 07:11:42;;;;;;;;;;;;;;;21.56;67.57;102368.47;7284454;19;151719;-49
2021/08/28 07:14:09;;;;;;;;;;;;;;;21.54;67.98;102370.69;7284777;19;153427;-49
2021/08/28 07:16:35;;;;;;;;;;;;;;;21.53;68.06;102365.38;7282546;19;154140;-50
2021/08/28 07:19:02;;;;;;;;;;;;;;;21.54;67.56;102372.66;7285430;19;152293;-50
2021/08/28 07:21:29;;;;;;;;;;;;;;;21.53;68.18;102371.00;7285288;19;152448;-49
2021/08/28 07:23:56;;;;;;;;;;;;;;;21.55;68.04;102368.75;7281973;19;154424;-50
2021/08/28 07:26:23;;;;;;;;;;;;;;;21.54;67.84;102369.84;7286368;19;151819;-50
2021/08/28 07:28:49;;;;;;;;;;;;;;;21.54;67.97;102367.88;7291974;19;153244;-50
2021/08/28 07:31:16;;;;;;;;;;;;;;;21.56;67.95;102364.81;7283549;19;151745;-50
2021/08/28 07:33:43;;;;;;;;;;;;;;;21.56;67.72;102370.44;7283325;19;151696;-50
2021/08/28 07:36:10;;;;;;;;;;;;;;;21.55;67.69;102371.53;7285386;19;153478;-49
2021/08/28 07:38:36;;;;;;;;;;;;;;;21.55;67.73;102368.75;7284013;19;151974;-50
2021/08/28 07:41:03;;;;;;;;;;;;;;;21.55;68.11;102361.16;7285095;19;154133;-50
2021/08/28 07:43:30;;;;;;;;;;;;;;;21.54;68.26;102359.44;7281826;19;154423;-50
2021/08/28 07:45:58;;;;;;;;;;;;;;;21.54;68.14;102358.59;7284292;19;151961;-49
2021/08/28 07:48:25;;;;;;;;;;;;;;;21.54;68.01;102356.63;7285006;19;152786;-49
2021/08/28 07:50:51;;;;;;;;;;;;;;;21.55;68.33;102349.91;7291221;19;153779;-49
2021/08/28 07:53:18;;;;;;;;;;;;;;;21.55;68.37;102355.53;7283153;19;153557;-50
2021/08/28 07:55:45;;;;;;;;;;;;;;;21.54;68.27;102351.00;7281815;19;154004;-49
2021/08/28 07:58:12;;;;;;;;;;;;;;;21.55;68.17;102363.97;7283961;19;151552;-49
2021/08/28 08:00:38;;;;;;;;;;;;;;;21.59;68.06;102352.97;7284945;19;153455;-49
2021/08/28 08:03:05;;;;;;;;;;;;;;;21.58;68.21;102356.91;7281379;19;153339;-49
2021/08/28 08:05:32;;;;;;;;;;;;;;;21.55;67.81;102355.53;7285481;19;152439;-49
2021/08/28 08:07:59;;;;;;;;;;;;;;;21.55;67.98;102349.91;7282510;19;153264;-50
2021/08/28 08:10:26;;;;;;;;;;;;;;;21.54;67.70;102348.19;7284439;19;153398;-50
2021/08/28 08:12:53;;;;;;;;;;;;;;;21.56;68.15;102357.22;7287679;19;151999;-49
2021/08/28 08:15:21;;;;;;;;;;;;;;;21.56;67.87;102360.03;7279576;19;153984;-50
2021/08/28 08:17:48;;;;;;;;;;;;;;;21.56;68.00;102356.38;7281902;19;151709;-50
2021/08/28 08:20:15;;;;;;;;;;;;;;;21.56;68.48;102362.84;7285061;19;152284;-49
2021/08/28 08:22:43;;;;;;;;;;;;;;;21.56;68.02;102362.00;7282563;19;154782;-50
2021/08/28 08:25:10;;;;;;;;;;;;;;;21.54;67.33;102367.03;7282748;19;151723;-50
2021/08/28 08:27:37;;;;;;;;;;;;;;;21.45;64.98;102366.75;7283250;19;153849;-50
2021/08/28 08:30:04;;;;;;;;;;;;;;;21.39;64.94;102365.09;7281364;19;153263;-49
2021/08/28 08:32:31;;;;;;;;;;;;;;;21.35;65.04;102365.94;7279030;19;151713;-50
2021/08/28 08:34:58;;;;;;;;;;;;;;;21.42;64.53;102364.53;7288169;19;152566;-50
2021/08/28 08:37:25;;;;;;;;;;;;;;;21.42;64.63;102363.66;7282765;19;151708;-49
2021/08/28 08:39:53;;;;;;;;;;;;;;;21.38;64.90;102368.16;7283423;19;152794;-50
2021/08/28 08:42:22;;;;;;;;;;;;;;;21.42;64.44;102372.94;7283072;19;153821;-49
2021/08/28 08:44:48;;;;;;;;;;;;;;;21.39;65.14;102362.28;7282155;19;151859;-50
2021/08/28 08:47:16;;;;;;;;;;;;;;;21.28;64.21;102366.19;7283208;19;153127;-49
2021/08/28 08:49:43;;;;;;;;;;;;;;;21.22;64.42;102364.47;7277803;19;153321;-49
2021/08/28 08:52:11;;;;;;;;;;;;;;;21.18;63.90;102364.19;7282624;19;151904;-50
2021/08/28 08:54:37;;;;;;;;;;;;;;;21.14;64.19;102365.03;7285999;19;152726;-50
2021/08/28 08:57:05;;;;;;;;;;;;;;;21.15;64.15;102363.91;7291088;19;151895;-50
2021/08/28 08:59:32;;;;;;;;;;;;;;;21.10;64.23;102361.91;7284515;19;154917;-50
2021/08/28 09:02:01;;;;;;;;;;;;;;;21.09;63.85;102365.84;7283071;19;154117;-50
2021/08/28 09:04:28;;;;;;;;;;;;;;;21.06;64.36;102354.31;7279550;19;151691;-50
2021/08/28 09:06:55;;;;;;;;;;;;;;;21.13;64.20;102355.75;7279170;19;154421;-50
2021/08/28 09:09:23;;;;;;;;;;;;;;;21.08;63.86;102347.28;7274691;19;154275;-50
2021/08/28 09:11:57;;;;;;;;;;;;;;;21.06;64.35;102357.97;7282687;19;152125;-54
2021/08/28 09:14:24;;;;;;;;;;;;;;;21.09;64.01;102348.13;7281162;19;152604;-50
2021/08/28 09:16:51;;;;;;;;;;;;;;;21.11;63.75;102345.91;7291556;19;153840;-50
2021/08/28 09:19:19;;;;;;;;;;;;;;;21.08;63.83;102347.28;7282348;19;153432;-49
2021/08/28 09:21:49;;;;;;;;;;;;;;;21.09;64.01;102343.34;7284040;19;154344;-49
2021/08/28 09:24:16;;;;;;;;;;;;;;;21.08;63.75;102343.63;7280624;19;152086;-50
2021/08/28 09:26:44;;;;;;;;;;;;;;;21.09;64.10;102340.53;7275933;19;152752;-51
2021/08/28 09:29:12;;;;;;;;;;;;;;;21.11;63.95;102343.09;7274610;19;153411;-50
2021/08/28 09:31:40;;;;;;;;;;;;;;;21.12;64.97;102345.59;7278378;19;152442;-50
2021/08/28 09:34:20;;;;;;;;;;;;;;;21.07;63.60;102344.75;7282992;19;153915;-50
2021/08/28 09:36:59;;;;;;;;;;;;;;;21.03;63.49;102349.25;7281586;19;153223;-50
2021/08/28 09:39:39;;;;;;;;;;;;;;;20.97;63.56;102353.16;7289916;19;151834;-49
2021/08/28 09:42:06;;;;;;;;;;;;;;;20.97;63.39;102350.34;7283699;19;152431;-49
2021/08/28 09:44:37;;;;;;;;;;;;;;;20.92;63.54;102347.53;7282951;19;152230;-50
2021/08/28 09:47:10;;;;;;;;;;;;;;;20.96;63.47;102360.75;7283305;19;151639;-50
2021/08/28 09:49:39;;;;;;;;;;;;;;;20.90;63.03;102363.81;7281689;19;152603;-49
2021/08/28 09:52:08;;;;;;;;;;;;;;;20.91;62.98;102357.06;7281550;19;152055;-49
2021/08/28 09:54:38;;;;;;;;;;;;;;;20.94;63.34;102371.41;7282921;19;154452;-50
2021/08/28 09:57:05;;;;;;;;;;;;;;;20.94;62.42;102362.97;7280447;19;152613;-50
2021/08/28 09:59:32;;;;;;;;;;;;;;;20.91;62.23;102366.34;7280212;19;152043;-50
2021/08/28 10:02:03;;;;;;;;;;;;;;;20.95;61.88;102363.81;7288258;19;153117;-49
2021/08/28 10:04:47;;;;;;;;;;;;;;;20.96;62.27;102365.53;7281929;19;151867;-49
2021/08/28 10:07:17;;;;;;;;;;;;;;;20.97;62.56;102364.41;7279300;19;152022;-50
2021/08/28 10:09:44;;;;;;;;;;;;;;;20.96;62.27;102360.75;7278064;19;154017;-50
2021/08/28 10:12:13;;;;;;;;;;;;;;;20.98;62.24;102363.28;7277346;19;151841;-49
2021/08/28 10:14:39;;;;;;;;;;;;;;;21.01;61.98;102359.91;7279157;19;153136;-49
2021/08/28 10:17:07;;;;;;;;;;;;;;;21.02;61.56;102367.22;7280088;19;154615;-50
2021/08/28 10:19:35;;;;;;;;;;;;;;;21.01;61.84;102362.72;7281003;19;151955;-49
2021/08/28 10:22:02;;;;;;;;;;;;;;;21.02;62.52;102361.63;7281237;19;153397;-50
2021/08/28 10:24:29;;;;;;;;;;;;;;;21.02;62.19;102367.22;7287159;19;152194;-50
2021/08/28 10:26:56;;;;;;;;;;;;;;;21.03;61.99;102371.75;7280803;19;152849;-49
2021/08/28 10:29:23;;;;;;;;;;;;;;;21.06;62.19;102365.56;7279754;19;154172;-50
2021/08/28 10:31:50;;;;;;;;;;;;;;;21.11;61.40;102368.38;7274513;19;151732;-50
2021/08/28 10:34:17;;;;;;;;;;;;;;;21.13;61.65;102367.00;7272878;19;152598;-49
2021/08/28 10:36:44;;;;;;;;;;;;;;;21.11;61.76;102365.56;7272894;19;154101;-50
2021/08/28 10:39:11;;;;;;;;;;;;;;;21.14;61.70;102368.69;7279954;19;152030;-49
2021/08/28 10:41:38;;;;;;;;;;;;;;;21.15;61.78;102356.34;7282070;19;154177;-50
2021/08/28 10:44:05;;;;;;;;;;;;;;;21.21;61.87;102360.00;7282761;19;153981;-50
2021/08/28 10:46:32;;;;;;;;;;;;;;;21.19;61.66;102367.84;7295387;19;151681;-49
2021/08/28 10:49:00;;;;;;;;;;;;;;;21.15;61.82;102359.16;7285947;19;154312;-49
2021/08/28 10:51:32;;;;;;;;;;;;;;;21.20;60.97;102361.97;7286307;19;153103;-49
2021/08/28 10:54:22;;;;;;;;;;;;;;;21.21;61.26;102357.19;7283994;19;152723;-50
2021/08/28 10:56:54;;;;;;;;;;;;;;;21.20;61.23;102358.31;7284839;19;152534;-49
2021/08/28 10:59:22;;;;;;;;;;;;;;;21.19;61.55;102353.81;7284200;19;153347;-49
2021/08/28 11:02:09;;;;;;;;;;;;;;;21.20;61.15;102361.13;7284379;19;153035;-49
2021/08/28 11:04:38;;;;;;;;;;;;;;;21.19;60.89;102357.47;7283147;19;152993;-50
2021/08/28 11:07:20;;;;;;;;;;;;;;;21.19;60.81;102359.44;7295694;19;151728;-50
2021/08/28 11:10:03;;;;;;;;;;;;;;;21.17;60.97;102370.09;7285306;19;154521;-50
2021/08/28 11:12:50;;;;;;;;;;;;;;;21.16;61.13;102369.28;7282687;19;151739;-50
2021/08/28 11:15:32;;;;;;;;;;;;;;;21.14;62.77;102373.47;7282182;19;153889;-49
2021/08/28 11:18:01;;;;;;;;;;;;;;;21.15;63.63;102375.16;7286801;19;154214;-49
2021/08/28 11:20:41;;;;;;;;;;;;;;;21.14;63.69;102379.94;7283910;19;151654;-49
2021/08/28 11:23:12;;;;;;;;;;;;;;;21.17;63.63;102392.56;7286090;19;153567;-50
2021/08/28 11:25:40;;;;;;;;;;;;;;;21.23;63.22;102383.88;7283264;19;152732;-49
2021/08/28 11:28:07;;;;;;;;;;;;;;;21.30;63.42;102387.25;7287388;19;151893;-50
2021/08/28 11:30:46;;;;;;;;;;;;;;;21.36;63.59;102387.28;7291858;19;154741;-50
2021/08/28 11:33:16;;;;;;;;;;;;;;;21.41;63.13;102384.47;7285369;19;152365;-49
2021/08/28 11:35:47;;;;;;;;;;;;;;;21.47;63.47;102389.84;7286242;19;152594;-49
2021/08/28 11:38:16;;;;;;;;;;;;;;;21.51;63.49;102382.53;7284619;19;152722;-49
2021/08/28 11:40:56;;;;;;;;;;;;;;;21.56;63.61;102393.78;7284399;19;152413;-50
2021/08/28 11:43:29;;;;;;;;;;;;;;;21.62;63.76;102387.00;7285843;19;151915;-50
2021/08/28 11:45:59;;;;;;;;;;;;;;;21.68;63.45;102385.91;7285462;19;153163;-50
2021/08/28 11:48:26;;;;;;;;;;;;;;;21.76;63.50;102384.47;7279241;19;152296;-50
2021/08/28 11:50:55;;;;;;;;;;;;;;;21.83;63.01;102378.56;7280051;19;152112;-49
2021/08/28 11:53:26;;;;;;;;;;;;;;;21.88;62.84;102384.22;7287861;19;153950;-49
2021/08/28 11:56:03;;;;;;;;;;;;;;;21.94;62.92;102381.13;7281490;19;153534;-50
2021/08/28 11:58:30;;;;;;;;;;;;;;;22.02;62.88;102380.56;7283065;19;153430;-50
2021/08/28 12:00:57;;;;;;;;;;;;;;;22.07;62.89;102372.13;7282984;19;153028;-50
2021/08/28 12:03:24;;;;;;;;;;;;;;;22.13;62.25;102370.97;7283288;19;152977;-50
2021/08/28 12:05:54;;;;;;;;;;;;;;;22.19;62.28;102366.16;7280768;19;152525;-50
2021/08/28 12:08:21;;;;;;;;;;;;;;;22.25;61.92;102367.00;7283438;19;152065;-50
2021/08/28 12:10:48;;;;;;;;;;;;;;;22.29;61.92;102368.13;7284251;19;152794;-50
2021/08/28 12:13:14;;;;;;;;;;;;;;;22.33;61.97;102363.59;7280339;19;153543;-50
2021/08/28 12:15:44;;;;;;;;;;;;;;;22.38;61.73;102369.22;7292368;19;151807;-49
2021/08/28 12:18:11;;;;;;;;;;;;;;;22.43;60.47;102363.56;7277620;19;152591;-50
2021/08/28 12:20:39;;;;;;;;;;;;;;;22.46;60.29;102369.47;7285980;19;152041;-49
2021/08/28 12:23:10;;;;;;;;;;;;;;;22.49;60.15;102363.25;7283649;19;153407;-50
2021/08/28 12:25:37;;;;;;;;;;;;;;;22.53;59.66;102352.28;7281502;19;153283;-49
2021/08/28 12:28:04;;;;;;;;;;;;;;;22.55;59.52;102356.47;7283017;19;152206;-50
2021/08/28 12:30:32;;;;;;;;;;;;;;;22.59;59.57;102356.72;7278269;19;152737;-49
2021/08/28 12:32:58;;;;;;;;;;;;;;;22.60;59.26;102358.44;7281980;19;153475;-50